createdAt,value
2018-10-18T00:24:10.777Z,13.30
2018-10-18T00:44:26.352Z,13.10
2018-10-18T00:54:34.257Z,13.00
2018-10-18T01:09:45.977Z,12.90
2018-10-18T01:19:53.985Z,12.80
2018-10-18T01:30:02.017Z,12.70
2018-10-18T01:40:10.358Z,12.70
2018-10-18T01:55:22.833Z,13.00
2018-10-18T02:10:34.704Z,13.30
2018-10-18T02:15:38.796Z,13.40
2018-10-18T02:25:46.658Z,13.50
2018-10-18T02:35:54.561Z,13.70
2018-10-18T02:40:58.596Z,13.80
2018-10-18T03:06:17.981Z,14.00
2018-10-18T03:16:25.865Z,14.00
2018-10-18T03:36:41.483Z,14.10
2018-10-18T03:56:57.037Z,14.00
2018-10-18T04:02:01.166Z,14.00
2018-10-18T04:07:05.847Z,14.00
2018-10-18T04:12:10.012Z,14.00
2018-10-18T04:22:17.875Z,14.00
2018-10-18T04:32:26.921Z,14.00
2018-10-18T04:42:34.827Z,14.10
2018-10-18T04:47:39.021Z,14.10
2018-10-18T04:52:43.062Z,14.20
2018-10-18T05:12:58.578Z,14.20
2018-10-18T05:23:06.825Z,14.30
2018-10-18T05:38:18.541Z,14.30
2018-10-18T05:43:24.240Z,14.30
2018-10-18T05:48:28.299Z,14.30
2018-10-18T05:53:32.392Z,14.30
2018-10-18T05:58:36.429Z,14.40
2018-10-18T06:13:48.254Z,14.50
2018-10-18T06:23:56.237Z,14.50
2018-10-18T06:29:00.375Z,14.50
2018-10-18T06:34:05.141Z,14.50
2018-10-18T06:39:10.829Z,14.60
2018-10-18T06:44:14.929Z,14.50
2018-10-18T06:49:19.158Z,14.60
2018-10-18T06:59:27.209Z,14.60
2018-10-18T07:09:35.130Z,14.60
2018-10-18T07:19:43.145Z,14.70
2018-10-18T07:45:03.327Z,15.20
2018-10-18T08:00:16.605Z,15.30
2018-10-18T08:05:20.637Z,15.40
2018-10-18T08:30:40.214Z,15.90
2018-10-18T09:46:39.054Z,16.80
2018-10-18T09:56:47.025Z,16.60
2018-10-18T10:01:56.494Z,16.70
2018-10-18T10:12:04.605Z,16.80
2018-10-18T10:27:16.806Z,16.80
2018-10-18T10:37:25.060Z,18.10
2018-10-18T10:52:37.161Z,16.60
2018-10-18T10:57:41.270Z,16.60
2018-10-18T11:02:45.483Z,16.60
2018-10-18T11:28:05.466Z,17.10
2018-10-18T11:33:09.612Z,17.20
2018-10-18T11:38:14.502Z,17.30
2018-10-18T11:59:01.316Z,17.50
2018-10-18T12:04:05.515Z,17.60
2018-10-18T12:09:11.123Z,17.60
2018-10-18T12:19:19.134Z,17.70
2018-10-18T12:49:44.623Z,17.90
2018-10-18T12:54:48.643Z,17.90
2018-10-18T13:04:56.634Z,17.90
2018-10-18T13:10:00.756Z,17.90
2018-10-18T13:50:32.962Z,18.40
2018-10-18T14:46:16.442Z,17.90
2018-10-18T15:01:28.370Z,17.80
2018-10-18T15:16:40.270Z,17.70
2018-10-18T15:21:44.375Z,17.70
2018-10-18T15:26:48.522Z,17.70
2018-10-18T15:31:52.624Z,17.60
2018-10-18T15:36:56.708Z,17.60
2018-10-18T15:42:00.797Z,17.60
2018-10-18T15:57:12.992Z,17.50
2018-10-18T16:02:16.997Z,17.40
2018-10-18T16:17:28.814Z,17.20
2018-10-18T16:22:32.841Z,17.10
2018-10-18T16:27:36.933Z,17.20
2018-10-18T16:32:41.009Z,17.10
2018-10-18T16:37:45.142Z,17.10
2018-10-18T16:42:49.273Z,17.00
2018-10-18T16:47:53.614Z,16.90
2018-10-18T16:52:57.465Z,16.90
2018-10-18T16:58:01.592Z,16.80
2018-10-18T17:08:09.668Z,16.50
2018-10-18T17:13:13.723Z,16.30
2018-10-18T17:18:17.815Z,16.10
2018-10-18T17:38:33.409Z,15.20
2018-10-18T17:48:41.309Z,14.90
2018-10-18T17:53:45.314Z,14.70
2018-10-18T17:58:50.101Z,14.50
2018-10-18T18:19:06.318Z,14.20
2018-10-18T18:24:10.409Z,14.00
2018-10-18T18:34:18.243Z,13.70
2018-10-18T18:44:26.377Z,13.50
2018-10-18T18:59:38.137Z,13.10
2018-10-18T19:55:21.944Z,12.20
2018-10-18T20:15:37.450Z,11.90
2018-10-18T20:20:41.477Z,11.80
2018-10-18T20:40:57.057Z,11.50
2018-10-18T20:46:01.224Z,11.50
2018-10-18T21:06:17.247Z,11.30
2018-10-18T21:22:32.590Z,11.00
2018-10-18T21:27:36.692Z,11.00
2018-10-18T21:32:40.694Z,10.90
2018-10-18T21:52:57.006Z,10.70
2018-10-18T22:03:05.040Z,10.60
2018-10-18T22:08:09.143Z,10.60
2018-10-18T22:13:13.663Z,10.50
2018-10-18T22:23:21.623Z,10.40
2018-10-18T22:43:37.281Z,10.30
2018-10-18T22:53:45.166Z,10.20
2018-10-18T23:03:52.978Z,10.10
2018-10-18T23:14:00.890Z,10.00
2018-10-18T23:19:05.406Z,9.90
2018-10-18T23:29:13.403Z,9.90
2018-10-18T23:34:17.478Z,9.80
2018-10-18T23:39:21.589Z,9.80
2018-10-18T23:49:29.560Z,9.70
2018-10-18T23:54:33.666Z,9.70
